createdAt,value
2017-11-06T00:02:22.675Z,12.27
2017-11-06T00:04:50.270Z,11.55
2017-11-06T00:07:17.839Z,11.57
2017-11-06T00:09:45.386Z,13.05
2017-11-06T00:12:12.967Z,14.52
2017-11-06T00:14:40.552Z,13.32
2017-11-06T00:17:08.128Z,12.55
2017-11-06T00:19:36.043Z,13.13
2017-11-06T00:22:03.637Z,12.75
2017-11-06T00:24:31.187Z,13.57
2017-11-06T00:26:58.750Z,12.60
2017-11-06T00:29:26.335Z,13.07
2017-11-06T00:31:53.944Z,12.30
2017-11-06T00:34:21.486Z,13.35
2017-11-06T00:36:49.101Z,13.23
2017-11-06T00:39:16.736Z,13.82
2017-11-06T00:41:45.076Z,13.75
2017-11-06T00:44:14.350Z,12.82
2017-11-06T00:46:41.923Z,13.65
2017-11-06T00:49:09.520Z,13.27
2017-11-06T00:51:38.153Z,14.07
2017-11-06T00:54:05.786Z,13.10
2017-11-06T00:56:33.469Z,13.60
2017-11-06T00:59:01.034Z,12.45
2017-11-06T01:01:28.606Z,14.40
2017-11-06T01:03:56.162Z,13.52
2017-11-06T01:06:23.741Z,13.23
2017-11-06T01:08:51.325Z,13.50
2017-11-06T01:11:18.893Z,13.77
2017-11-06T01:13:46.478Z,13.70
2017-11-06T01:16:14.069Z,14.38
2017-11-06T01:18:41.677Z,13.65
2017-11-06T01:21:10.018Z,17.35
2017-11-06T01:23:37.584Z,13.40
2017-11-06T01:26:05.788Z,13.95
2017-11-06T01:28:34.149Z,13.80
2017-11-06T01:31:01.693Z,15.18
2017-11-06T01:33:29.257Z,13.25
2017-11-06T01:35:56.854Z,12.88
2017-11-06T01:38:24.406Z,14.48
2017-11-06T01:40:51.981Z,14.45
2017-11-06T01:43:19.572Z,14.35
2017-11-06T01:45:47.899Z,12.23
2017-11-06T01:48:15.539Z,13.10
2017-11-06T01:50:43.137Z,14.98
2017-11-06T01:53:10.691Z,12.05
2017-11-06T01:55:38.337Z,14.18
2017-11-06T01:58:07.563Z,14.70
2017-11-06T02:00:35.978Z,12.90
2017-11-06T02:03:03.555Z,15.00
2017-11-06T02:05:31.746Z,13.80
2017-11-06T02:08:00.081Z,14.90
2017-11-06T02:10:27.648Z,14.13
2017-11-06T02:12:55.209Z,15.10
2017-11-06T02:15:22.810Z,15.23
2017-11-06T02:17:51.391Z,15.07
2017-11-06T02:20:19.004Z,15.98
2017-11-06T02:22:46.589Z,14.73
2017-11-06T02:25:14.219Z,14.90
2017-11-06T02:27:44.443Z,14.73
2017-11-06T02:30:12.029Z,16.15
2017-11-06T02:32:39.694Z,15.60
2017-11-06T02:35:07.281Z,16.95
2017-11-06T02:37:34.936Z,14.30
2017-11-06T02:40:02.525Z,16.70
2017-11-06T02:42:30.156Z,15.70
2017-11-06T02:44:57.707Z,16.48
2017-11-06T02:47:25.333Z,17.95
2017-11-06T02:49:53.936Z,16.55
2017-11-06T02:52:21.526Z,16.05
2017-11-06T02:54:49.158Z,17.10
2017-11-06T02:57:16.760Z,16.45
2017-11-06T02:59:44.331Z,17.08
2017-11-06T03:02:11.899Z,16.75
2017-11-06T03:04:39.494Z,18.17
2017-11-06T03:07:07.047Z,16.20
2017-11-06T03:09:34.641Z,17.52
2017-11-06T03:12:02.197Z,19.83
2017-11-06T03:14:29.799Z,18.58
2017-11-06T03:16:58.148Z,19.30
2017-11-06T03:19:25.756Z,17.80
2017-11-06T03:21:54.175Z,16.55
2017-11-06T03:24:21.995Z,19.33
2017-11-06T03:26:49.601Z,18.77
2017-11-06T03:29:17.188Z,19.08
2017-11-06T03:31:44.768Z,20.33
2017-11-06T03:34:12.366Z,17.92
2017-11-06T03:36:40.713Z,19.85
2017-11-06T03:39:08.342Z,18.27
2017-11-06T03:41:35.931Z,19.25
2017-11-06T03:44:03.588Z,18.37
2017-11-06T03:46:31.176Z,21.27
2017-11-06T03:48:58.734Z,19.98
2017-11-06T03:51:26.317Z,18.30
2017-11-06T03:53:53.905Z,18.30
2017-11-06T03:56:23.247Z,17.90
2017-11-06T03:58:50.834Z,19.92
2017-11-06T04:01:18.689Z,20.90
2017-11-06T04:03:46.313Z,19.08
2017-11-06T04:06:14.290Z,20.00
2017-11-06T04:08:42.695Z,19.90
2017-11-06T04:11:10.281Z,22.33
2017-11-06T04:13:37.922Z,21.45
2017-11-06T04:16:05.511Z,20.88
2017-11-06T04:18:33.892Z,22.27
2017-11-06T04:21:01.496Z,22.55
2017-11-06T04:23:30.101Z,24.87
2017-11-06T04:25:58.463Z,21.52
2017-11-06T04:28:26.054Z,21.73
2017-11-06T04:30:54.437Z,21.10
2017-11-06T04:33:22.049Z,21.02
2017-11-06T04:35:50.659Z,21.48
2017-11-06T04:38:18.254Z,23.38
2017-11-06T04:40:46.609Z,22.90
2017-11-06T04:43:16.083Z,26.08
2017-11-06T04:45:43.684Z,23.60
2017-11-06T04:48:11.274Z,20.77
2017-11-06T04:50:39.639Z,22.15
2017-11-06T04:53:07.241Z,22.35
2017-11-06T04:55:34.815Z,24.20
2017-11-06T04:58:02.380Z,25.12
2017-11-06T05:00:30.020Z,23.12
2017-11-06T05:02:58.345Z,20.55
2017-11-06T05:05:25.955Z,20.33
2017-11-06T05:07:54.300Z,21.87
2017-11-06T05:10:21.887Z,24.15
2017-11-06T05:12:49.480Z,21.10
2017-11-06T05:15:18.051Z,22.52
2017-11-06T05:17:46.437Z,23.73
2017-11-06T05:20:14.810Z,21.48
2017-11-06T05:22:42.427Z,23.45
2017-11-06T05:25:10.060Z,21.08
2017-11-06T05:27:38.474Z,20.55
2017-11-06T05:30:06.079Z,20.62
2017-11-06T05:32:33.638Z,21.37
2017-11-06T05:35:01.234Z,22.08
2017-11-06T05:37:28.811Z,20.10
2017-11-06T05:39:57.151Z,19.75
2017-11-06T05:42:24.773Z,20.02
2017-11-06T05:44:53.798Z,20.02
2017-11-06T05:47:23.349Z,20.40
2017-11-06T05:49:51.147Z,20.25
2017-11-06T05:52:18.799Z,20.52
2017-11-06T05:54:46.515Z,19.02
2017-11-06T05:57:15.099Z,20.50
2017-11-06T05:59:42.677Z,17.90
2017-11-06T06:02:10.237Z,17.25
2017-11-06T06:04:37.825Z,16.37
2017-11-06T06:07:05.415Z,13.90
2017-11-06T06:09:33.738Z,14.55
2017-11-06T06:12:01.467Z,17.73
2017-11-06T06:14:29.086Z,15.90
2017-11-06T06:16:56.661Z,17.05
2017-11-06T06:19:24.240Z,19.35
2017-11-06T06:21:51.805Z,15.63
2017-11-06T06:24:19.380Z,17.30
2017-11-06T06:26:47.743Z,17.00
2017-11-06T06:29:15.323Z,17.62
2017-11-06T06:31:42.884Z,17.55
2017-11-06T06:34:10.445Z,16.73
2017-11-06T06:36:38.008Z,16.62
2017-11-06T06:39:05.585Z,17.90
2017-11-06T06:41:33.163Z,17.60
2017-11-06T06:44:03.752Z,18.62
2017-11-06T06:46:31.437Z,17.08
2017-11-06T06:48:59.047Z,18.75
2017-11-06T06:51:26.611Z,17.95
2017-11-06T06:53:54.189Z,17.85
2017-11-06T06:56:21.773Z,17.33
2017-11-06T06:58:49.389Z,18.08
2017-11-06T07:01:16.968Z,17.62
2017-11-06T07:03:44.555Z,19.25
2017-11-06T07:06:12.195Z,16.48
2017-11-06T07:08:39.808Z,17.25
2017-11-06T07:11:07.408Z,20.10
2017-11-06T07:13:35.057Z,17.83
2017-11-06T07:16:02.664Z,18.30
2017-11-06T07:18:30.261Z,18.00
2017-11-06T07:20:57.829Z,18.27
2017-11-06T07:23:25.404Z,18.73
2017-11-06T07:25:52.974Z,24.23
2017-11-06T07:28:20.589Z,23.10
2017-11-06T07:30:48.169Z,19.77
2017-11-06T07:33:15.735Z,21.45
2017-11-06T07:35:43.333Z,20.35
2017-11-06T07:38:10.904Z,23.27
2017-11-06T07:40:38.515Z,19.48
2017-11-06T07:43:06.151Z,21.10
2017-11-06T07:45:33.732Z,21.08
2017-11-06T07:48:02.049Z,18.05
2017-11-06T07:50:29.631Z,18.20
2017-11-06T07:52:57.197Z,18.65
2017-11-06T07:55:24.754Z,18.27
2017-11-06T07:57:52.352Z,18.70
2017-11-06T08:00:19.916Z,19.40
2017-11-06T08:02:47.529Z,19.50
2017-11-06T08:05:15.095Z,22.95
2017-11-06T08:07:42.643Z,22.40
2017-11-06T08:10:10.234Z,19.92
2017-11-06T08:12:37.814Z,24.33
2017-11-06T08:15:05.401Z,22.10
2017-11-06T08:17:32.979Z,20.90
2017-11-06T08:20:00.594Z,21.65
2017-11-06T08:22:28.202Z,21.05
2017-11-06T08:24:55.815Z,21.77
2017-11-06T08:27:23.444Z,22.48
2017-11-06T08:29:51.819Z,22.33
2017-11-06T08:32:19.404Z,21.77
2017-11-06T08:34:47.774Z,21.20
2017-11-06T08:37:15.320Z,19.20
2017-11-06T08:39:42.925Z,19.73
2017-11-06T08:42:11.267Z,19.62
2017-11-06T08:44:38.847Z,18.80
2017-11-06T08:47:06.432Z,17.65
2017-11-06T08:49:34.781Z,19.77
2017-11-06T08:52:03.394Z,20.65
2017-11-06T08:54:30.931Z,20.40
2017-11-06T08:56:59.568Z,19.65
2017-11-06T08:59:27.177Z,18.92
2017-11-06T09:01:54.749Z,19.58
2017-11-06T09:04:22.316Z,19.70
2017-11-06T09:06:49.913Z,23.05
2017-11-06T09:09:17.569Z,21.65
2017-11-06T09:11:45.147Z,21.25
2017-11-06T09:14:12.807Z,23.40
2017-11-06T09:16:41.151Z,22.35
2017-11-06T09:19:08.769Z,18.87
2017-11-06T09:21:36.367Z,20.75
2017-11-06T09:24:03.945Z,21.00
2017-11-06T09:26:32.564Z,21.98
2017-11-06T09:29:00.177Z,22.37
2017-11-06T09:31:27.764Z,20.30
2017-11-06T09:33:55.359Z,19.80
2017-11-06T09:36:22.954Z,25.92
2017-11-06T09:38:51.296Z,22.65
2017-11-06T09:41:18.876Z,24.45
2017-11-06T09:43:47.229Z,22.05
2017-11-06T09:46:14.808Z,21.90
2017-11-06T09:48:42.353Z,20.80
2017-11-06T09:51:09.956Z,19.77
2017-11-06T09:53:37.519Z,21.40
2017-11-06T09:56:05.120Z,21.73
2017-11-06T09:58:32.704Z,20.48
2017-11-06T10:01:00.291Z,22.60
2017-11-06T10:03:27.863Z,22.48
2017-11-06T10:05:56.435Z,23.65
2017-11-06T10:08:23.986Z,19.73
2017-11-06T10:10:51.597Z,21.87
2017-11-06T10:13:20.009Z,21.27
2017-11-06T10:15:47.608Z,22.02
2017-11-06T10:18:15.183Z,22.17
2017-11-06T10:20:42.789Z,22.75
2017-11-06T10:23:11.253Z,19.83
2017-11-06T10:25:39.646Z,22.45
2017-11-06T10:28:08.026Z,23.30
2017-11-06T10:30:35.617Z,24.33
2017-11-06T10:33:03.998Z,23.25
2017-11-06T10:35:32.341Z,24.58
2017-11-06T10:38:00.013Z,23.50
2017-11-06T10:40:27.671Z,26.70
2017-11-06T10:42:55.315Z,24.70
2017-11-06T10:45:22.888Z,23.70
2017-11-06T10:47:50.713Z,23.15
2017-11-06T10:50:18.422Z,23.70
2017-11-06T10:52:46.016Z,23.20
2017-11-06T10:55:15.360Z,24.30
2017-11-06T10:57:43.593Z,21.65
2017-11-06T11:00:11.243Z,23.85
2017-11-06T11:02:39.288Z,24.98
2017-11-06T11:05:06.885Z,25.25
2017-11-06T11:07:34.480Z,24.27
2017-11-06T11:10:02.063Z,24.35
2017-11-06T11:12:29.650Z,25.73
2017-11-06T11:14:57.251Z,26.58
2017-11-06T11:17:24.864Z,25.02
2017-11-06T11:19:53.192Z,22.92
2017-11-06T11:22:21.811Z,23.38
2017-11-06T11:24:49.401Z,22.58
2017-11-06T11:27:17.022Z,21.87
2017-11-06T11:29:44.601Z,25.35
2017-11-06T11:32:12.161Z,23.38
2017-11-06T11:34:44.129Z,25.27
2017-11-06T11:37:11.710Z,22.37
2017-11-06T11:39:40.072Z,21.45
2017-11-06T11:42:07.665Z,23.40
2017-11-06T11:44:35.243Z,22.50
2017-11-06T11:47:02.829Z,20.08
2017-11-06T11:49:30.405Z,23.45
2017-11-06T11:51:58.971Z,22.40
2017-11-06T11:54:26.540Z,21.70
2017-11-06T11:56:54.136Z,20.92
2017-11-06T11:59:21.727Z,21.52
2017-11-06T12:01:49.309Z,20.52
2017-11-06T12:04:18.641Z,19.33
2017-11-06T12:06:46.224Z,20.75
2017-11-06T12:09:13.820Z,21.87
2017-11-06T12:11:42.157Z,20.27
2017-11-06T12:14:09.772Z,22.35
2017-11-06T12:16:37.371Z,20.02
2017-11-06T12:19:05.740Z,21.90
2017-11-06T12:21:33.339Z,21.55
2017-11-06T12:24:00.926Z,19.15
2017-11-06T12:26:28.562Z,20.92
2017-11-06T12:28:56.951Z,20.92
2017-11-06T12:31:24.545Z,22.13
2017-11-06T12:33:52.110Z,21.92
2017-11-06T12:36:19.712Z,22.25
2017-11-06T12:38:47.310Z,19.30
2017-11-06T12:41:14.860Z,20.48
2017-11-06T12:43:43.216Z,18.90
2017-11-06T12:46:10.857Z,19.87
2017-11-06T12:48:39.514Z,20.05
2017-11-06T12:51:07.083Z,20.95
2017-11-06T12:53:34.706Z,17.80
2017-11-06T12:56:02.710Z,20.10
2017-11-06T12:58:31.085Z,18.62
2017-11-06T13:00:58.661Z,18.08
2017-11-06T13:03:26.248Z,18.70
2017-11-06T13:05:53.829Z,19.50
2017-11-06T13:08:21.391Z,18.15
2017-11-06T13:10:49.030Z,17.48
2017-11-06T13:13:16.623Z,19.33
2017-11-06T13:15:44.324Z,20.67
2017-11-06T13:18:11.938Z,19.80
2017-11-06T13:20:39.520Z,19.42
2017-11-06T13:23:07.249Z,20.25
2017-11-06T13:25:35.593Z,20.02
2017-11-06T13:28:03.204Z,19.67
2017-11-06T13:30:30.807Z,19.90
2017-11-06T13:32:58.398Z,20.73
2017-11-06T13:35:25.994Z,17.60
2017-11-06T13:37:53.573Z,18.73
2017-11-06T13:40:21.134Z,17.12
2017-11-06T13:42:48.725Z,18.77
2017-11-06T13:45:16.318Z,18.00
2017-11-06T13:47:45.216Z,18.35
2017-11-06T13:50:12.762Z,20.67
2017-11-06T13:52:40.395Z,18.25
2017-11-06T13:55:08.040Z,19.27
2017-11-06T13:57:35.609Z,16.08
2017-11-06T14:00:03.206Z,16.55
2017-11-06T14:02:30.837Z,16.10
2017-11-06T14:04:59.176Z,15.48
2017-11-06T14:07:26.735Z,16.33
2017-11-06T14:09:54.315Z,16.30
2017-11-06T14:12:21.887Z,17.65
2017-11-06T14:14:49.692Z,19.37
2017-11-06T14:17:17.485Z,17.58
2017-11-06T14:19:45.349Z,18.45
2017-11-06T14:22:13.058Z,19.15
2017-11-06T14:24:41.670Z,18.67
2017-11-06T14:27:09.433Z,18.40
2017-11-06T14:29:38.096Z,18.00
2017-11-06T14:32:05.887Z,17.83
2017-11-06T14:34:33.641Z,18.62
2017-11-06T14:37:01.292Z,18.30
2017-11-06T14:39:29.022Z,17.42
2017-11-06T14:41:57.511Z,19.73
2017-11-06T14:44:25.283Z,18.58
2017-11-06T14:46:53.375Z,18.92
2017-11-06T14:49:21.375Z,18.27
2017-11-06T14:51:49.166Z,19.20
2017-11-06T14:54:16.815Z,19.23
2017-11-06T14:56:44.718Z,18.27
2017-11-06T14:59:12.632Z,20.12
2017-11-06T15:01:40.397Z,18.45
2017-11-06T15:04:08.126Z,18.30
2017-11-06T15:06:37.501Z,20.25
2017-11-06T15:09:05.278Z,19.62
2017-11-06T15:11:32.941Z,19.48
2017-11-06T15:14:00.519Z,20.90
2017-11-06T15:16:29.387Z,19.95
2017-11-06T15:18:57.026Z,18.85
2017-11-06T15:21:24.766Z,21.60
2017-11-06T15:23:53.158Z,20.10
2017-11-06T15:26:21.491Z,21.42
2017-11-06T15:28:50.186Z,19.95
2017-11-06T15:31:18.643Z,21.77
2017-11-06T15:33:46.249Z,19.95
2017-11-06T15:36:13.822Z,20.20
2017-11-06T15:38:41.413Z,21.55
2017-11-06T15:41:09.941Z,22.42
2017-11-06T15:43:37.557Z,20.42
2017-11-06T15:46:05.889Z,23.00
2017-11-06T15:48:33.475Z,20.80
2017-11-06T15:51:01.026Z,22.00
2017-11-06T15:53:29.762Z,20.50
2017-11-06T15:55:58.120Z,20.83
2017-11-06T15:58:25.731Z,22.83
2017-11-06T16:00:53.299Z,22.95
2017-11-06T16:03:20.907Z,21.52
2017-11-06T16:05:48.539Z,21.92
2017-11-06T16:08:16.116Z,22.00
2017-11-06T16:10:44.745Z,20.73
2017-11-06T16:13:13.298Z,21.33
2017-11-06T16:15:40.861Z,23.00
2017-11-06T16:18:08.447Z,21.85
2017-11-06T16:20:36.015Z,19.65
2017-11-06T16:23:03.669Z,22.02
2017-11-06T16:25:31.249Z,20.62
2017-11-06T16:27:58.847Z,22.02
2017-11-06T16:30:26.477Z,21.08
2017-11-06T16:32:54.079Z,20.65
2017-11-06T16:35:22.406Z,22.35
2017-11-06T16:37:49.985Z,19.55
2017-11-06T16:40:17.603Z,23.10
2017-11-06T16:42:45.202Z,22.15
2017-11-06T16:45:12.860Z,21.37
2017-11-06T16:47:40.443Z,21.12
2017-11-06T16:50:08.019Z,19.90
2017-11-06T16:52:35.634Z,23.48
2017-11-06T16:55:03.596Z,20.45
2017-11-06T16:57:31.967Z,22.70
2017-11-06T17:00:00.392Z,21.23
2017-11-06T17:02:28.020Z,21.15
2017-11-06T17:04:56.388Z,20.40
2017-11-06T17:07:23.963Z,21.85
2017-11-06T17:09:51.763Z,22.62
2017-11-06T17:12:19.404Z,22.60
2017-11-06T17:14:46.997Z,19.62
2017-11-06T17:17:14.589Z,22.27
2017-11-06T17:19:42.747Z,21.58
2017-11-06T17:22:10.994Z,20.02
2017-11-06T17:24:39.355Z,19.33
2017-11-06T17:27:06.939Z,22.37
2017-11-06T17:29:35.267Z,22.67
2017-11-06T17:32:02.928Z,21.02
2017-11-06T17:34:30.487Z,20.83
2017-11-06T17:36:58.070Z,21.05
2017-11-06T17:39:25.730Z,20.20
2017-11-06T17:41:53.340Z,21.12
2017-11-06T17:44:20.903Z,18.95
2017-11-06T17:46:48.483Z,20.25
2017-11-06T17:49:16.856Z,18.90
2017-11-06T17:51:44.452Z,21.05
2017-11-06T17:54:12.106Z,17.83
2017-11-06T17:56:39.771Z,18.08
2017-11-06T17:59:08.122Z,20.90
2017-11-06T18:01:35.740Z,20.27
2017-11-06T18:04:03.337Z,18.10
2017-11-06T18:06:30.943Z,20.33
2017-11-06T18:08:59.312Z,19.92
2017-11-06T18:11:27.676Z,22.23
2017-11-06T18:13:55.256Z,24.55
2017-11-06T18:16:22.911Z,24.10
2017-11-06T18:18:50.507Z,24.58
2017-11-06T18:21:18.197Z,22.85
2017-11-06T18:23:45.835Z,22.35
2017-11-06T18:26:17.625Z,24.25
2017-11-06T18:28:45.216Z,22.33
2017-11-06T18:31:12.812Z,25.12
2017-11-06T18:33:40.380Z,27.15
2017-11-06T18:36:07.946Z,27.62
2017-11-06T18:38:36.347Z,25.80
2017-11-06T18:41:03.961Z,26.70
2017-11-06T18:43:31.572Z,27.52
2017-11-06T18:45:59.107Z,27.23
2017-11-06T18:48:27.682Z,27.17
2017-11-06T18:50:55.244Z,25.85
2017-11-06T18:53:22.852Z,25.52
2017-11-06T18:55:54.299Z,26.67
2017-11-06T18:58:26.836Z,29.33
2017-11-06T19:00:56.009Z,28.08
2017-11-06T19:03:25.018Z,27.60
2017-11-06T19:05:55.620Z,25.50
2017-11-06T19:08:24.299Z,26.45
2017-11-06T19:11:05.902Z,26.73
2017-11-06T19:13:34.931Z,28.98
2017-11-06T19:16:02.669Z,27.45
2017-11-06T19:18:30.415Z,27.95
2017-11-06T19:21:00.109Z,28.83
2017-11-06T19:23:28.558Z,29.37
2017-11-06T19:25:56.179Z,29.15
2017-11-06T19:28:24.739Z,29.17
2017-11-06T19:30:52.345Z,27.37
2017-11-06T19:33:20.728Z,27.42
2017-11-06T19:35:48.573Z,27.98
2017-11-06T19:38:16.467Z,28.50
2017-11-06T19:40:44.748Z,29.25
2017-11-06T19:43:13.190Z,24.80
2017-11-06T19:45:40.832Z,26.90
2017-11-06T19:48:08.429Z,28.87
2017-11-06T19:50:36.124Z,25.12
2017-11-06T19:53:03.784Z,25.95
2017-11-06T19:55:31.370Z,24.95
2017-11-06T19:58:00.341Z,23.95
2017-11-06T20:00:29.077Z,26.12
2017-11-06T20:02:56.931Z,26.23
2017-11-06T20:05:25.897Z,27.85
2017-11-06T20:07:53.621Z,26.45
2017-11-06T20:10:21.241Z,27.77
2017-11-06T20:12:48.978Z,26.85
2017-11-06T20:15:16.578Z,25.70
2017-11-06T20:17:44.157Z,21.80
2017-11-06T20:20:12.989Z,21.77
2017-11-06T20:22:41.192Z,22.98
2017-11-06T20:25:08.790Z,22.65
2017-11-06T20:27:36.514Z,21.23
2017-11-06T20:30:05.202Z,21.48
2017-11-06T20:32:33.822Z,25.20
2017-11-06T20:35:01.961Z,22.77
2017-11-06T20:37:29.988Z,21.52
2017-11-06T20:39:57.570Z,22.33
2017-11-06T20:42:26.065Z,22.98
2017-11-06T20:44:54.453Z,20.77
2017-11-06T20:47:22.810Z,24.40
2017-11-06T20:49:50.533Z,23.67
2017-11-06T20:52:18.106Z,23.60
2017-11-06T20:54:45.692Z,20.50
2017-11-06T20:57:13.264Z,22.98
2017-11-06T20:59:40.858Z,23.23
2017-11-06T21:02:09.576Z,23.55
2017-11-06T21:04:37.126Z,23.02
2017-11-06T21:07:04.706Z,23.75
2017-11-06T21:09:32.250Z,24.52
2017-11-06T21:11:59.807Z,23.60
2017-11-06T21:14:27.397Z,24.50
2017-11-06T21:16:54.980Z,24.35
2017-11-06T21:19:22.565Z,24.05
2017-11-06T21:21:50.108Z,23.05
2017-11-06T21:24:17.700Z,23.30
2017-11-06T21:26:45.265Z,22.00
2017-11-06T21:29:12.869Z,20.75
2017-11-06T21:31:40.456Z,23.60
2017-11-06T21:34:08.050Z,22.35
2017-11-06T21:36:35.622Z,23.55
2017-11-06T21:39:03.199Z,24.50
2017-11-06T21:41:30.759Z,24.20
2017-11-06T21:43:58.316Z,26.30
2017-11-06T21:46:25.941Z,24.20
2017-11-06T21:48:53.569Z,22.70
2017-11-06T21:51:21.980Z,22.95
2017-11-06T21:53:49.543Z,26.05
2017-11-06T21:56:18.149Z,22.92
2017-11-06T21:58:45.709Z,23.35
2017-11-06T22:01:13.293Z,22.77
2017-11-06T22:03:40.893Z,23.30
2017-11-06T22:06:08.491Z,22.23
2017-11-06T22:08:36.069Z,24.75
2017-11-06T22:11:03.644Z,24.15
2017-11-06T22:13:31.234Z,25.25
2017-11-06T22:15:58.840Z,23.38
2017-11-06T22:18:27.370Z,24.70
2017-11-06T22:20:55.140Z,23.42
2017-11-06T22:23:22.902Z,23.60
2017-11-06T22:25:50.714Z,26.00
2017-11-06T22:28:19.997Z,24.35
2017-11-06T22:30:48.661Z,22.30
2017-11-06T22:33:16.277Z,24.83
2017-11-06T22:35:44.625Z,25.05
2017-11-06T22:38:12.186Z,24.83
2017-11-06T22:40:39.781Z,25.35
2017-11-06T22:43:07.352Z,22.80
2017-11-06T22:45:34.933Z,25.52
2017-11-06T22:48:03.262Z,24.15
2017-11-06T22:50:30.907Z,26.10
2017-11-06T22:52:58.574Z,27.35
2017-11-06T22:55:26.335Z,26.30
2017-11-06T22:57:54.098Z,25.08
2017-11-06T23:00:22.782Z,28.05
2017-11-06T23:02:50.603Z,24.50
2017-11-06T23:05:18.454Z,25.40
2017-11-06T23:07:46.045Z,22.40
2017-11-06T23:10:13.627Z,22.87
2017-11-06T23:12:41.238Z,24.35
2017-11-06T23:15:08.899Z,23.08
2017-11-06T23:17:36.499Z,24.52
2017-11-06T23:20:04.081Z,23.92
2017-11-06T23:22:31.664Z,23.42
2017-11-06T23:24:59.824Z,24.67
2017-11-06T23:27:27.420Z,24.67
2017-11-06T23:29:55.771Z,24.33
2017-11-06T23:32:23.337Z,24.27
2017-11-06T23:34:50.924Z,22.58
2017-11-06T23:37:18.507Z,28.33
2017-11-06T23:39:46.130Z,29.80
2017-11-06T23:42:13.712Z,28.12
2017-11-06T23:44:41.267Z,25.45
2017-11-06T23:47:08.875Z,30.40
2017-11-06T23:49:37.200Z,31.17
2017-11-06T23:52:04.773Z,31.10
2017-11-06T23:54:32.320Z,31.37
2017-11-06T23:56:59.889Z,31.27
2017-11-06T23:59:27.477Z,29.10
